Terminal Aerodrome Forecast
Issued by NWS

Current Version | Previous Version | Graphics & Text | Print | Product List | Glossary On
Versions: 1 2 3 4 5 6 7 8 9 10 11 12 13 14 15 16 17
368
FTUS41 KPBZ 212205 AAA
TAFMGW
TAF AMD
KMGW 212205Z 2122/2218 17008KT P6SM BKN050
     FM220400 18008KT 3SM SHRA OVC015
     FM220700 28010KT P6SM OVC015=

USA.gov is the U.S. government's official web portal to all federal, state and local government web resources and services.